Rowsburg, Ohio
Current Conditions -  °F | °C
As of 5:56 AM on Monday 20 Oct 2014 (Local Time) from KBJJ Reporting Station
Overcast Overcast  
Wind Chill: 43°   Ceiling: 10000
Heat Index: 46°   Visibility: 10mi
Dew Point: 38°   Wind: 6mph
Humidity: 73%   Direction: 200°SSW
Pressure: 29.98"   Gusts: NA
Location:  40.9196°N, 82.2006°W
Report Text: KBJJ 200956Z AUTO 20005KT 10SM OVC100 08/03 A2998 RMK AO2 SLP156 T00780033 TSNO
Loading
Personal Weather Stations






























Interactive Weather Map
Tropical Storm Tracking
New forecast layout! Learn more

10-Day Weather Forecast

Advertisements
Track Severe Weather on mobile